createdAt,value
2022-08-23T00:01:31.122Z,74.58
2022-08-23T00:04:01.553Z,74.90
2022-08-23T00:06:28.641Z,74.56
2022-08-23T00:08:55.566Z,74.61
2022-08-23T00:11:24.767Z,75.01
2022-08-23T00:13:51.285Z,74.71
2022-08-23T00:16:17.853Z,75.45
2022-08-23T00:18:49.278Z,75.16
2022-08-23T00:21:16.754Z,75.40
2022-08-23T00:23:43.248Z,75.39
2022-08-23T00:26:10.134Z,75.39
2022-08-23T00:28:36.674Z,75.23
2022-08-23T00:31:03.934Z,75.55
2022-08-23T00:33:30.456Z,75.72
2022-08-23T00:35:56.971Z,75.70
2022-08-23T00:38:32.564Z,75.63
2022-08-23T00:41:02.155Z,75.85
2022-08-23T00:43:57.740Z,75.70
2022-08-23T00:47:02.756Z,75.77
2022-08-23T00:49:31.978Z,76.58
2022-08-23T00:52:10.698Z,76.24
2022-08-23T00:54:39.364Z,76.99
2022-08-23T00:57:16.364Z,77.00
2022-08-23T00:59:42.817Z,76.97
2022-08-23T01:02:09.933Z,76.98
2022-08-23T01:04:44.553Z,76.67
2022-08-23T01:07:22.162Z,77.39
2022-08-23T01:09:51.921Z,77.13
2022-08-23T01:12:37.581Z,76.66
2022-08-23T01:15:16.100Z,76.30
2022-08-23T01:17:50.032Z,76.97
2022-08-23T01:20:22.408Z,77.14
2022-08-23T01:23:02.467Z,77.46
2022-08-23T01:25:32.843Z,77.81
2022-08-23T01:28:00.419Z,78.74
2022-08-23T01:30:32.532Z,77.71
2022-08-23T01:33:04.138Z,78.29
2022-08-23T01:35:36.341Z,78.11
2022-08-23T01:38:02.872Z,78.92
2022-08-23T01:40:29.975Z,79.29
2022-08-23T01:42:56.566Z,78.54
2022-08-23T01:45:23.087Z,78.73
2022-08-23T01:47:49.671Z,78.80
2022-08-23T01:50:16.172Z,78.81
2022-08-23T01:52:47.163Z,79.26
2022-08-23T01:55:14.552Z,78.54
2022-08-23T01:57:43.184Z,78.06
2022-08-23T02:00:13.587Z,78.56
2022-08-23T02:02:41.150Z,78.38
2022-08-23T02:05:09.819Z,78.77
2022-08-23T02:07:36.306Z,79.57
2022-08-23T02:10:07.304Z,80.13
2022-08-23T02:12:33.841Z,80.35
2022-08-23T02:15:00.374Z,80.19
2022-08-23T02:17:28.137Z,79.77
2022-08-23T02:19:55.771Z,79.95
2022-08-23T02:22:23.148Z,79.59
2022-08-23T02:24:50.267Z,79.85
2022-08-23T02:27:17.536Z,79.67
2022-08-23T02:29:45.911Z,80.02
2022-08-23T02:32:14.902Z,80.40
2022-08-23T02:34:42.979Z,80.56
2022-08-23T02:37:11.478Z,80.35
2022-08-23T02:39:39.102Z,80.34
2022-08-23T02:42:07.026Z,80.02
2022-08-23T02:44:34.772Z,80.31
2022-08-23T02:47:02.782Z,79.97
2022-08-23T02:49:29.824Z,79.52
2022-08-23T02:51:57.217Z,80.33
2022-08-23T02:54:24.172Z,81.00
2022-08-23T02:56:52.756Z,81.74
2022-08-23T02:59:19.232Z,81.81
2022-08-23T03:01:45.722Z,81.75
2022-08-23T03:04:12.425Z,81.16
2022-08-23T03:06:39.119Z,81.43
2022-08-23T03:09:08.739Z,81.61
2022-08-23T03:11:35.911Z,81.63
2022-08-23T03:14:02.475Z,81.64
2022-08-23T03:16:29.250Z,81.26
2022-08-23T03:18:55.935Z,81.43
2022-08-23T03:21:22.577Z,81.12
2022-08-23T03:23:49.178Z,81.50
2022-08-23T03:26:16.247Z,81.06
2022-08-23T03:28:44.367Z,81.24
2022-08-23T03:31:12.341Z,81.37
2022-08-23T03:33:39.360Z,81.29
2022-08-23T03:36:07.978Z,81.20
2022-08-23T03:38:34.776Z,80.92
2022-08-23T03:41:01.856Z,80.73
2022-08-23T03:43:29.363Z,80.52
2022-08-23T03:45:55.910Z,79.59
2022-08-23T03:48:22.688Z,80.04
2022-08-23T03:50:49.205Z,79.50
2022-08-23T03:53:16.280Z,80.15
2022-08-23T03:55:43.714Z,80.21
2022-08-23T03:58:11.758Z,79.95
2022-08-23T04:00:38.447Z,79.51
2022-08-23T04:03:05.235Z,80.30
2022-08-23T04:05:31.682Z,80.60
2022-08-23T04:07:58.517Z,80.57
2022-08-23T04:10:25.847Z,80.67
2022-08-23T04:12:54.795Z,79.92
2022-08-23T04:15:22.648Z,79.97
2022-08-23T04:17:49.403Z,79.97
2022-08-23T04:20:16.613Z,79.33
2022-08-23T04:22:43.314Z,80.03
2022-08-23T04:25:32.853Z,80.75
2022-08-23T04:27:59.758Z,81.32
2022-08-23T04:30:27.166Z,81.52
2022-08-23T04:32:54.467Z,81.68
2022-08-23T04:35:22.374Z,81.75
2022-08-23T04:37:48.935Z,81.84
2022-08-23T04:40:35.828Z,81.87
2022-08-23T04:43:02.544Z,82.22
2022-08-23T04:45:29.324Z,82.13
2022-08-23T04:47:56.058Z,82.00
2022-08-23T04:50:22.592Z,82.03
2022-08-23T04:52:49.030Z,82.22
2022-08-23T04:55:16.635Z,81.90
2022-08-23T04:57:43.322Z,81.84
2022-08-23T05:00:13.622Z,81.66
2022-08-23T05:02:40.241Z,81.84
2022-08-23T05:05:08.511Z,81.86
2022-08-23T05:07:42.678Z,81.64
2022-08-23T05:10:12.822Z,81.49
2022-08-23T05:12:40.387Z,80.73
2022-08-23T05:15:11.240Z,80.67
2022-08-23T05:17:38.794Z,80.45
2022-08-23T05:20:06.937Z,80.53
2022-08-23T05:22:34.852Z,80.84
2022-08-23T05:25:01.396Z,80.67
2022-08-23T05:27:27.925Z,80.68
2022-08-23T05:29:54.461Z,80.67
2022-08-23T05:32:22.783Z,80.70
2022-08-23T05:34:49.611Z,79.79
2022-08-23T05:37:17.168Z,80.22
2022-08-23T05:39:43.989Z,79.95
2022-08-23T05:42:13.678Z,80.46
2022-08-23T05:44:40.202Z,80.54
2022-08-23T05:47:11.154Z,80.71
2022-08-23T05:49:39.164Z,80.25
2022-08-23T05:52:07.292Z,80.77
2022-08-23T05:54:34.962Z,80.63
2022-08-23T05:57:02.088Z,80.87
2022-08-23T05:59:28.778Z,79.70
2022-08-23T06:01:56.562Z,80.04
2022-08-23T06:04:23.457Z,79.20
2022-08-23T06:06:49.929Z,78.14
2022-08-23T06:09:18.133Z,77.66
2022-08-23T06:11:46.666Z,77.66
2022-08-23T06:14:13.353Z,77.45
2022-08-23T06:16:43.598Z,77.40
2022-08-23T06:19:11.080Z,77.51
2022-08-23T06:21:38.216Z,77.55
2022-08-23T06:24:05.110Z,77.11
2022-08-23T06:26:35.055Z,77.83
2022-08-23T06:29:05.973Z,77.70
2022-08-23T06:31:45.404Z,76.75
2022-08-23T06:34:13.822Z,77.67
2022-08-23T06:36:41.007Z,77.60
2022-08-23T06:39:09.927Z,77.44
2022-08-23T06:41:37.860Z,77.56
2022-08-23T06:44:04.773Z,77.87
2022-08-23T06:46:32.991Z,77.02
2022-08-23T06:49:00.816Z,77.06
2022-08-23T06:51:30.531Z,75.61
2022-08-23T06:54:03.210Z,75.90
2022-08-23T06:56:30.391Z,75.29
2022-08-23T06:58:56.902Z,75.68
2022-08-23T07:02:17.203Z,75.46
2022-08-23T07:04:43.876Z,75.39
2022-08-23T07:07:11.894Z,74.86
2022-08-23T07:09:40.195Z,75.35
2022-08-23T07:12:07.294Z,76.02
2022-08-23T07:14:34.339Z,76.17
2022-08-23T07:17:03.334Z,76.13
2022-08-23T07:19:32.696Z,75.05
2022-08-23T07:22:00.475Z,74.94
2022-08-23T07:24:32.687Z,74.86
2022-08-23T07:27:01.455Z,74.88
2022-08-23T07:29:29.910Z,75.01
2022-08-23T07:31:57.141Z,74.81
2022-08-23T07:34:25.140Z,74.96
2022-08-23T07:36:53.212Z,73.79
2022-08-23T07:39:22.235Z,73.19
2022-08-23T07:41:49.469Z,72.96
2022-08-23T07:44:18.262Z,73.14
2022-08-23T07:46:46.627Z,71.96
2022-08-23T07:49:14.280Z,72.45
2022-08-23T07:51:45.412Z,71.01
2022-08-23T07:54:13.185Z,71.74
2022-08-23T07:56:39.556Z,71.21
2022-08-23T07:59:08.152Z,70.16
2022-08-23T08:01:37.081Z,69.21
2022-08-23T08:04:05.745Z,68.10
2022-08-23T08:06:40.357Z,67.87
2022-08-23T08:09:09.122Z,67.64
2022-08-23T08:11:36.394Z,67.34
2022-08-23T08:14:09.050Z,67.01
2022-08-23T08:16:42.338Z,66.65
2022-08-23T08:19:11.313Z,67.02
2022-08-23T08:21:42.063Z,67.97
2022-08-23T08:24:10.525Z,67.93
2022-08-23T08:26:37.692Z,66.24
2022-08-23T08:29:05.014Z,66.51
2022-08-23T08:31:31.684Z,67.27
2022-08-23T08:33:58.407Z,67.20
2022-08-23T08:36:46.911Z,67.08
2022-08-23T08:39:24.618Z,67.82
2022-08-23T08:42:09.839Z,66.44
2022-08-23T08:44:49.599Z,67.58
2022-08-23T08:47:47.039Z,66.18
2022-08-23T08:50:26.565Z,63.47
2022-08-23T08:53:04.434Z,63.00
2022-08-23T08:55:38.780Z,62.60
2022-08-23T08:58:06.673Z,62.07
2022-08-23T09:00:37.980Z,61.82
2022-08-23T09:03:12.462Z,60.76
2022-08-23T09:05:50.255Z,61.08
2022-08-23T09:08:32.722Z,62.40
2022-08-23T09:11:22.127Z,62.22
2022-08-23T09:14:07.205Z,60.60
2022-08-23T09:16:46.467Z,60.43
2022-08-23T09:19:13.139Z,60.57
2022-08-23T09:22:02.745Z,61.64
2022-08-23T09:24:30.465Z,58.96
2022-08-23T09:26:57.599Z,61.18
2022-08-23T09:29:31.009Z,59.60
2022-08-23T09:32:03.751Z,59.58
2022-08-23T09:34:30.498Z,60.40
2022-08-23T09:37:15.257Z,58.50
2022-08-23T09:39:49.607Z,57.22
2022-08-23T09:42:37.953Z,59.71
2022-08-23T09:45:06.737Z,60.29
2022-08-23T09:47:44.193Z,57.63
2022-08-23T09:50:26.234Z,58.94
2022-08-23T09:53:09.661Z,58.57
2022-08-23T09:55:40.180Z,57.46
2022-08-23T09:58:18.659Z,57.38
2022-08-23T10:01:01.036Z,57.98
2022-08-23T10:03:29.595Z,56.62
2022-08-23T10:05:59.302Z,55.46
2022-08-23T10:08:32.845Z,57.66
2022-08-23T10:11:12.936Z,55.46
2022-08-23T10:13:42.632Z,55.82
2022-08-23T10:16:30.552Z,55.51
2022-08-23T10:19:25.700Z,55.37
2022-08-23T10:22:10.196Z,56.00
2022-08-23T10:25:04.339Z,55.07
2022-08-23T10:28:37.284Z,55.02
2022-08-23T10:31:31.190Z,54.84
2022-08-23T10:34:18.965Z,53.07
2022-08-23T10:36:55.066Z,54.13
2022-08-23T10:39:27.332Z,52.93
2022-08-23T10:42:13.068Z,53.40
2022-08-23T10:44:40.630Z,52.00
2022-08-23T10:47:10.040Z,52.77
2022-08-23T10:49:38.617Z,51.96
2022-08-23T10:52:08.196Z,51.03
2022-08-23T10:54:46.579Z,49.29
2022-08-23T10:57:20.418Z,48.26
2022-08-23T10:59:50.225Z,48.56
2022-08-23T11:02:28.984Z,50.05
2022-08-23T11:05:21.614Z,49.25
2022-08-23T11:08:06.222Z,48.82
2022-08-23T11:10:41.708Z,48.76
2022-08-23T11:13:26.737Z,47.56
2022-08-23T11:16:13.199Z,45.78
2022-08-23T11:18:45.650Z,46.85
2022-08-23T11:21:17.947Z,44.76
2022-08-23T11:23:59.671Z,45.74
2022-08-23T11:26:26.056Z,44.74
2022-08-23T11:29:18.205Z,43.23
2022-08-23T11:31:56.310Z,42.06
2022-08-23T11:34:30.109Z,42.36
2022-08-23T11:37:21.941Z,44.58
2022-08-23T11:39:57.777Z,44.09
2022-08-23T11:42:44.157Z,42.26
2022-08-23T11:45:33.258Z,42.36
2022-08-23T11:48:13.796Z,41.81
2022-08-23T11:50:59.865Z,42.54
2022-08-23T11:53:44.869Z,41.57
2022-08-23T11:56:23.391Z,41.33
2022-08-23T11:59:16.257Z,43.17
2022-08-23T12:01:45.595Z,41.95
2022-08-23T12:04:38.211Z,41.28
2022-08-23T12:07:12.557Z,42.58
2022-08-23T12:09:42.025Z,39.35
2022-08-23T12:12:26.980Z,43.26
2022-08-23T12:14:59.651Z,42.44
2022-08-23T12:17:26.487Z,43.15
2022-08-23T12:20:16.859Z,43.01
2022-08-23T12:23:28.289Z,44.49
2022-08-23T12:26:30.158Z,43.74
2022-08-23T12:29:04.626Z,43.29
2022-08-23T12:31:43.435Z,43.31
2022-08-23T12:34:25.596Z,42.94
2022-08-23T12:37:07.644Z,41.23
2022-08-23T12:39:48.163Z,40.71
2022-08-23T12:42:18.346Z,40.49
2022-08-23T12:44:47.383Z,40.07
2022-08-23T12:47:20.552Z,40.17
2022-08-23T12:50:00.738Z,41.19
2022-08-23T12:52:32.016Z,40.53
2022-08-23T12:54:59.223Z,40.46
2022-08-23T12:57:42.312Z,40.76
2022-08-23T13:00:16.728Z,39.60
2022-08-23T13:02:58.452Z,39.91
2022-08-23T13:05:40.663Z,39.39
2022-08-23T13:08:15.898Z,39.06
2022-08-23T13:10:44.794Z,37.77
2022-08-23T13:13:14.726Z,39.20
2022-08-23T13:15:47.537Z,37.95
2022-08-23T13:18:28.547Z,39.21
2022-08-23T13:21:23.120Z,38.83
2022-08-23T13:23:56.302Z,39.83
2022-08-23T13:26:40.655Z,39.80
2022-08-23T13:29:24.161Z,36.71
2022-08-23T13:32:03.336Z,39.12
2022-08-23T13:34:48.618Z,38.16
2022-08-23T13:37:20.882Z,37.95
2022-08-23T13:39:51.338Z,40.50
2022-08-23T13:42:38.264Z,39.94
2022-08-23T13:45:29.516Z,39.60
2022-08-23T13:48:00.430Z,39.39
2022-08-23T13:50:36.710Z,39.13
2022-08-23T13:53:14.960Z,41.87
2022-08-23T13:55:52.126Z,41.97
2022-08-23T13:58:29.516Z,40.21
2022-08-23T14:00:58.900Z,39.57
2022-08-23T14:03:28.616Z,38.26
2022-08-23T14:05:55.300Z,39.57
2022-08-23T14:08:21.898Z,39.08
2022-08-23T14:10:48.645Z,37.63
2022-08-23T14:13:17.221Z,38.75
2022-08-23T14:18:33.435Z,39.18
2022-08-23T14:21:00.697Z,38.61
2022-08-23T14:23:27.153Z,38.87
2022-08-23T14:25:56.622Z,38.29
2022-08-23T14:28:26.488Z,37.90
2022-08-23T14:30:57.236Z,37.40
2022-08-23T14:33:23.970Z,37.24
2022-08-23T14:35:52.309Z,38.44
2022-08-23T14:38:19.117Z,38.84
2022-08-23T14:40:55.915Z,38.23
2022-08-23T14:43:22.507Z,38.47
2022-08-23T14:45:52.878Z,38.94
2022-08-23T14:48:19.684Z,38.73
2022-08-23T14:50:46.913Z,39.19
2022-08-23T14:53:15.554Z,37.80
2022-08-23T14:55:42.057Z,38.27
2022-08-23T14:58:08.745Z,38.34
2022-08-23T15:00:36.459Z,39.23
2022-08-23T15:03:09.809Z,37.36
2022-08-23T15:05:36.933Z,38.33
2022-08-23T15:08:03.699Z,38.54
2022-08-23T15:13:26.986Z,38.80
2022-08-23T15:15:55.589Z,38.30
2022-08-23T15:18:22.202Z,38.16
2022-08-23T15:20:49.083Z,38.17
2022-08-23T15:23:19.068Z,38.39
2022-08-23T15:25:45.638Z,38.47
2022-08-23T15:28:15.932Z,38.98
2022-08-23T15:30:43.274Z,38.03
2022-08-23T15:33:10.161Z,38.57
2022-08-23T15:35:41.546Z,39.18
2022-08-23T15:38:13.768Z,39.57
2022-08-23T15:40:40.405Z,40.71
2022-08-23T15:43:07.367Z,40.08
2022-08-23T15:45:34.740Z,39.28
2022-08-23T15:48:12.088Z,40.34
2022-08-23T15:50:42.465Z,40.74
2022-08-23T15:53:08.947Z,40.29
2022-08-23T15:55:35.623Z,40.21
2022-08-23T15:58:02.316Z,40.36
2022-08-23T16:00:29.273Z,40.11
2022-08-23T16:03:18.960Z,40.33
2022-08-23T16:05:44.912Z,40.65
2022-08-23T16:08:21.693Z,40.50
2022-08-23T16:10:48.244Z,41.05
2022-08-23T16:13:14.780Z,40.09
2022-08-23T16:15:41.325Z,42.81
2022-08-23T16:18:08.069Z,41.23
2022-08-23T16:20:34.656Z,41.59
2022-08-23T16:23:01.306Z,41.90
2022-08-23T16:25:28.673Z,41.04
2022-08-23T16:27:55.382Z,41.63
2022-08-23T16:30:22.004Z,43.28
2022-08-23T16:32:48.536Z,43.38
2022-08-23T16:35:15.051Z,43.12
2022-08-23T16:37:41.691Z,45.19
2022-08-23T16:40:09.258Z,46.33
2022-08-23T16:42:35.788Z,46.56
2022-08-23T16:45:02.369Z,46.46
2022-08-23T16:47:32.175Z,47.30
2022-08-23T16:49:58.629Z,46.95
2022-08-23T16:52:34.264Z,47.81
2022-08-23T16:55:00.921Z,48.13
2022-08-23T16:57:27.384Z,48.08
2022-08-23T16:59:55.607Z,47.98
2022-08-23T17:02:35.089Z,48.22
2022-08-23T17:05:02.920Z,48.71
2022-08-23T17:07:29.498Z,48.99
2022-08-23T17:09:56.121Z,49.11
2022-08-23T17:12:22.565Z,49.31
2022-08-23T17:14:50.771Z,49.53
2022-08-23T17:17:17.873Z,49.21
2022-08-23T17:19:44.534Z,50.07
2022-08-23T17:22:11.395Z,50.47
2022-08-23T17:24:37.950Z,49.83
2022-08-23T17:27:05.313Z,50.50
2022-08-23T17:29:32.638Z,50.39
2022-08-23T17:32:04.763Z,51.19
2022-08-23T17:34:31.269Z,51.48
2022-08-23T17:36:57.978Z,51.57
2022-08-23T17:39:29.011Z,51.45
2022-08-23T17:41:56.641Z,51.66
2022-08-23T17:44:23.041Z,50.97
2022-08-23T17:46:50.622Z,51.30
2022-08-23T17:49:18.224Z,51.43
2022-08-23T17:51:44.787Z,51.88
2022-08-23T17:54:15.960Z,52.28
2022-08-23T17:56:50.105Z,52.68
2022-08-23T17:59:17.768Z,53.06
2022-08-23T18:01:44.239Z,53.72
2022-08-23T18:04:11.682Z,54.58
2022-08-23T18:06:38.262Z,55.05
2022-08-23T18:09:06.596Z,55.40
2022-08-23T18:11:36.454Z,55.90
2022-08-23T18:14:03.940Z,56.42
2022-08-23T18:16:35.355Z,57.09
2022-08-23T18:19:03.851Z,57.52
2022-08-23T18:21:31.049Z,58.05
2022-08-23T18:23:58.250Z,58.09
2022-08-23T18:26:43.439Z,57.98
2022-08-23T18:29:12.258Z,58.57
2022-08-23T18:31:40.897Z,59.39
2022-08-23T18:34:07.495Z,59.59
2022-08-23T18:36:34.424Z,60.16
2022-08-23T18:39:01.206Z,60.76
2022-08-23T18:41:28.171Z,61.04
2022-08-23T18:43:54.945Z,61.03
2022-08-23T18:46:21.513Z,61.40
2022-08-23T18:48:53.602Z,61.43
2022-08-23T18:51:20.903Z,61.83
2022-08-23T18:53:47.441Z,61.73
2022-08-23T18:56:13.878Z,61.77
2022-08-23T18:58:40.368Z,62.21
2022-08-23T19:01:27.980Z,61.91
2022-08-23T19:03:56.056Z,62.45
2022-08-23T19:06:23.503Z,62.29
2022-08-23T19:08:50.048Z,62.88
2022-08-23T19:11:16.543Z,63.11
2022-08-23T19:13:43.090Z,62.88
2022-08-23T19:16:15.489Z,63.28
2022-08-23T19:18:44.842Z,63.46
2022-08-23T19:21:13.755Z,63.50
2022-08-23T19:23:41.221Z,63.53
2022-08-23T19:26:15.913Z,63.64
2022-08-23T19:28:43.071Z,63.84
2022-08-23T19:31:10.385Z,64.00
2022-08-23T19:33:37.566Z,64.73
2022-08-23T19:36:04.660Z,65.20
2022-08-23T19:38:31.933Z,64.92
2022-08-23T19:41:00.237Z,65.17
2022-08-23T19:43:26.902Z,64.84
2022-08-23T19:45:54.614Z,65.15
2022-08-23T19:48:22.037Z,64.99
2022-08-23T19:50:49.580Z,64.80
2022-08-23T19:53:18.086Z,64.93
2022-08-23T19:55:45.141Z,65.04
2022-08-23T19:58:13.523Z,65.40
2022-08-23T20:00:40.904Z,66.08
2022-08-23T20:03:07.554Z,65.77
2022-08-23T20:05:34.336Z,66.81
2022-08-23T20:08:01.264Z,66.98
2022-08-23T20:10:28.162Z,67.38
2022-08-23T20:12:54.761Z,67.19
2022-08-23T20:15:21.414Z,67.54
2022-08-23T20:17:47.899Z,67.82
2022-08-23T20:20:14.434Z,67.56
2022-08-23T20:22:59.773Z,67.90
2022-08-23T20:25:26.318Z,68.24
2022-08-23T20:27:52.783Z,68.02
2022-08-23T20:30:19.307Z,68.39
2022-08-23T20:32:45.826Z,68.31
2022-08-23T20:35:12.966Z,68.10
2022-08-23T20:37:39.487Z,68.91
2022-08-23T20:40:07.732Z,68.97
2022-08-23T20:42:34.257Z,68.43
2022-08-23T20:45:00.738Z,68.78
2022-08-23T20:47:27.334Z,69.23
2022-08-23T20:49:53.941Z,69.18
2022-08-23T20:52:20.456Z,68.88
2022-08-23T20:54:46.986Z,69.55
2022-08-23T20:57:13.589Z,69.55
2022-08-23T20:59:44.434Z,69.66
2022-08-23T21:02:11.709Z,69.69
2022-08-23T21:04:38.297Z,70.01
2022-08-23T21:07:08.301Z,69.80
2022-08-23T21:09:35.343Z,69.94
2022-08-23T21:12:01.776Z,69.87
2022-08-23T21:14:28.236Z,70.26
2022-08-23T21:16:54.685Z,70.18
2022-08-23T21:19:22.375Z,70.16
2022-08-23T21:21:48.906Z,70.83
2022-08-23T21:24:16.239Z,70.61
2022-08-23T21:26:43.091Z,71.19
2022-08-23T21:29:10.386Z,71.21
2022-08-23T21:31:37.616Z,71.07
2022-08-23T21:34:04.778Z,71.42
2022-08-23T21:36:31.487Z,71.76
2022-08-23T21:38:57.916Z,71.55
2022-08-23T21:41:43.153Z,71.49
2022-08-23T21:44:15.224Z,71.58
2022-08-23T21:46:42.790Z,71.99
2022-08-23T21:49:12.192Z,71.82
2022-08-23T21:51:39.668Z,72.01
2022-08-23T21:54:08.972Z,72.15
2022-08-23T21:56:36.518Z,72.34
2022-08-23T21:59:06.393Z,73.10
2022-08-23T22:01:35.511Z,73.30
2022-08-23T22:04:07.555Z,73.64
2022-08-23T22:06:35.040Z,74.17
2022-08-23T22:09:02.609Z,73.96
2022-08-23T22:11:29.155Z,74.08
2022-08-23T22:13:56.378Z,73.78
2022-08-23T22:16:23.012Z,73.88
2022-08-23T22:18:49.558Z,74.06
2022-08-23T22:21:16.296Z,74.31
2022-08-23T22:23:44.510Z,74.52
2022-08-23T22:26:13.640Z,74.31
2022-08-23T22:28:44.414Z,74.47
2022-08-23T22:31:13.344Z,74.57
2022-08-23T22:33:41.455Z,74.33
2022-08-23T22:36:11.439Z,74.81
2022-08-23T22:38:39.037Z,74.53
2022-08-23T22:41:06.070Z,74.86
2022-08-23T22:43:33.097Z,74.78
2022-08-23T22:46:01.578Z,74.96
2022-08-23T22:48:31.426Z,74.96
2022-08-23T22:51:14.580Z,74.73
2022-08-23T22:53:44.501Z,75.15
2022-08-23T22:56:14.883Z,75.75
2022-08-23T22:58:41.519Z,76.06
2022-08-23T23:01:13.263Z,75.83
2022-08-23T23:03:41.302Z,75.79
2022-08-23T23:06:09.645Z,75.93
2022-08-23T23:08:37.032Z,75.87
2022-08-23T23:11:10.639Z,75.79
2022-08-23T23:13:37.844Z,76.00
2022-08-23T23:16:06.890Z,75.86
2022-08-23T23:18:34.428Z,75.53
2022-08-23T23:21:03.003Z,75.92
2022-08-23T23:23:31.203Z,76.25
2022-08-23T23:25:58.804Z,76.77
2022-08-23T23:28:25.859Z,77.40
2022-08-23T23:30:54.047Z,77.90
2022-08-23T23:33:21.618Z,78.46
2022-08-23T23:35:48.767Z,78.85
2022-08-23T23:38:15.978Z,78.69
2022-08-23T23:40:43.667Z,78.48
2022-08-23T23:43:13.201Z,78.48
2022-08-23T23:45:40.366Z,78.38
2022-08-23T23:48:08.125Z,79.26
2022-08-23T23:50:36.838Z,79.11
2022-08-23T23:53:04.267Z,78.88
2022-08-23T23:55:30.817Z,78.51
2022-08-23T23:57:57.358Z,78.58
